Time;durP1;ratioP1;P1;durP2;ratioP2;P2;SDS_P1;SDS_P2;PMS_P1;PMS_P2;Temp;Humidity;BMP_temperature;BMP_pressure;BME280_temperature;BME280_humidity;BME280_pressure;Samples;Min_cycle;Max_cycle;Signal;HPM_P1;HPM_P2
2023/06/09 00:01:19;;;;;;;15.87;9.93;;;21.60;99.90;;;;;;7286534;19;20288;-86
2023/06/09 00:03:47;;;;;;;14.40;9.90;;;21.60;99.90;;;;;;7288151;19;20188;-86
2023/06/09 00:06:13;;;;;;;23.00;10.63;;;21.60;99.90;;;;;;7293492;19;20275;-86
2023/06/09 00:08:40;;;;;;;19.23;10.73;;;21.50;99.90;;;;;;7314323;19;20198;-86
2023/06/09 00:11:06;;;;;;;15.03;10.30;;;21.40;99.90;;;;;;7285643;19;20185;-85
2023/06/09 00:13:32;;;;;;;15.70;10.60;;;21.40;99.90;;;;;;7291432;19;20209;-87
2023/06/09 00:15:57;;;;;;;14.83;10.73;;;21.30;99.90;;;;;;7290429;19;20193;-86
2023/06/09 00:18:24;;;;;;;16.60;10.73;;;21.30;99.90;;;;;;7290908;19;20197;-86
2023/06/09 00:20:50;;;;;;;15.57;10.30;;;21.30;99.90;;;;;;7288478;19;20188;-86
2023/06/09 00:23:17;;;;;;;19.80;10.87;;;21.20;99.90;;;;;;7289308;19;20213;-86
2023/06/09 00:25:43;;;;;;;17.43;11.20;;;21.20;99.90;;;;;;7288844;19;20272;-85
2023/06/09 00:28:10;;;;;;;16.83;11.33;;;21.20;99.90;;;;;;7310112;19;20205;-86
2023/06/09 00:30:36;;;;;;;17.70;10.73;;;21.20;99.90;;;;;;7286877;19;20198;-86
2023/06/09 00:33:02;;;;;;;16.83;10.50;;;21.10;99.90;;;;;;7289764;19;20174;-86
2023/06/09 00:35:28;;;;;;;17.80;11.00;;;21.00;99.90;;;;;;7288999;19;20647;-86
2023/06/09 00:37:53;;;;;;;20.60;10.77;;;21.00;99.90;;;;;;7288916;19;20189;-86
2023/06/09 00:40:21;;;;;;;18.90;11.03;;;20.80;99.90;;;;;;7289584;19;20181;-86
2023/06/09 00:42:48;;;;;;;16.40;11.10;;;20.50;99.90;;;;;;7287881;19;20188;-86
2023/06/09 00:45:14;;;;;;;16.73;11.17;;;20.20;99.90;;;;;;7287972;19;20191;-86
2023/06/09 00:47:40;;;;;;;16.20;11.20;;;20.10;99.90;;;;;;7310630;19;20586;-86
2023/06/09 00:50:07;;;;;;;15.80;10.57;;;20.10;99.90;;;;;;7288795;19;20197;-85
2023/06/09 00:52:33;;;;;;;15.30;11.03;;;20.00;99.90;;;;;;7288530;19;20225;-86
2023/06/09 00:54:59;;;;;;;15.67;11.53;;;20.00;99.90;;;;;;7288919;19;20250;-86
2023/06/09 00:57:25;;;;;;;18.93;11.33;;;19.90;99.90;;;;;;7288401;19;20192;-86
2023/06/09 00:59:53;;;;;;;18.37;11.53;;;19.90;99.90;;;;;;7288988;19;20259;-85
2023/06/09 01:02:19;;;;;;;18.33;11.77;;;19.90;99.90;;;;;;7287132;19;20209;-86
2023/06/09 01:04:49;;;;;;;18.10;11.17;;;19.90;99.90;;;;;;7288676;19;20255;-86
2023/06/09 01:07:40;;;;;;;19.30;11.57;;;19.60;99.90;;;;;;7288452;19;20535;-86
2023/06/09 01:10:42;;;;;;;18.20;11.77;;;19.40;99.90;;;;;;7287657;19;20196;-86
2023/06/09 01:13:18;;;;;;;18.80;12.20;;;19.50;99.90;;;;;;7186166;19;2004326;-86
2023/06/09 01:15:49;;;;;;;17.47;12.23;;;19.60;99.90;;;;;;7266905;19;20304;-85
2023/06/09 01:18:17;;;;;;;18.70;11.90;;;19.50;99.90;;;;;;7287755;19;20260;-86
2023/06/09 01:21:12;;;;;;;19.37;12.67;;;19.40;99.90;;;;;;7287676;19;20205;-85
2023/06/09 01:24:11;;;;;;;19.77;11.63;;;19.30;99.90;;;;;;7288930;19;20222;-86
2023/06/09 01:26:38;;;;;;;17.60;11.53;;;19.40;99.90;;;;;;7186177;19;2004390;-86
2023/06/09 01:29:05;;;;;;;17.43;12.60;;;19.40;99.90;;;;;;7286714;19;20651;-86
2023/06/09 01:31:32;;;;;;;16.27;11.77;;;19.40;99.90;;;;;;7288580;19;20205;-86
2023/06/09 01:34:00;;;;;;;17.80;12.30;;;19.40;99.90;;;;;;7287253;19;20198;-86
2023/06/09 01:36:27;;;;;;;17.87;12.20;;;19.20;99.90;;;;;;7287076;19;20189;-86
2023/06/09 01:38:52;;;;;;;19.37;12.30;;;19.20;99.90;;;;;;7289372;19;20189;-86
2023/06/09 01:41:20;;;;;;;19.67;13.33;;;19.20;99.90;;;;;;7286817;19;20256;-83
2023/06/09 01:43:46;;;;;;;18.47;12.13;;;19.30;99.90;;;;;;7287005;19;20205;-86
2023/06/09 01:46:12;;;;;;;19.77;13.03;;;19.30;99.90;;;;;;7298551;19;20192;-85
2023/06/09 01:49:02;;;;;;;20.57;13.00;;;19.30;99.90;;;;;;7303935;19;20213;-86
2023/06/09 01:51:47;;;;;;;18.37;12.37;;;19.20;99.90;;;;;;7184279;19;2004662;-87
2023/06/09 01:54:24;;;;;;;16.83;13.10;;;19.20;99.90;;;;;;7266354;19;20748;-86
2023/06/09 01:57:02;;;;;;;19.03;13.23;;;19.20;99.90;;;;;;7288185;19;20191;-86
2023/06/09 01:59:37;;;;;;;16.67;12.17;;;19.20;99.90;;;;;;7287539;19;20196;-86
2023/06/09 02:02:04;;;;;;;18.30;12.93;;;19.20;99.90;;;;;;7284692;19;20945;-86
2023/06/09 02:04:31;;;;;;;16.63;12.57;;;19.20;99.90;;;;;;7286652;19;20189;-86
2023/06/09 02:06:59;;;;;;;21.60;13.27;;;19.30;99.90;;;;;;7288009;19;20190;-86
2023/06/09 02:09:25;;;;;;;18.63;13.00;;;19.30;99.90;;;;;;7285514;19;20219;-86
2023/06/09 02:11:52;;;;;;;20.83;14.00;;;19.30;99.90;;;;;;7287194;19;20641;-86
2023/06/09 02:14:18;;;;;;;22.73;14.20;;;19.30;99.90;;;;;;7287072;19;20663;-86
2023/06/09 02:16:46;;;;;;;19.03;13.20;;;19.20;99.90;;;;;;7286665;19;20554;-86
2023/06/09 02:19:12;;;;;;;18.53;14.20;;;19.10;99.90;;;;;;7309108;19;20215;-85
2023/06/09 02:21:38;;;;;;;23.33;13.63;;;19.00;99.90;;;;;;7285829;19;20666;-85
2023/06/09 02:24:05;;;;;;;21.00;12.97;;;19.10;99.90;;;;;;7285280;19;20230;-86
2023/06/09 02:26:32;;;;;;;18.03;13.40;;;19.10;99.90;;;;;;7288093;19;20199;-86
2023/06/09 02:28:59;;;;;;;21.37;13.77;;;19.10;99.90;;;;;;7286981;19;20203;-86
2023/06/09 02:31:30;;;;;;;21.87;13.97;;;19.10;99.90;;;;;;7289397;19;20187;-87
2023/06/09 02:33:56;;;;;;;19.23;14.00;;;19.10;99.90;;;;;;7292662;19;20186;-84
2023/06/09 02:36:23;;;;;;;17.83;13.53;;;19.20;99.90;;;;;;7292205;19;20211;-85
2023/06/09 02:38:50;;;;;;;24.80;13.37;;;19.20;99.90;;;;;;7292879;19;20530;-86
2023/06/09 02:41:16;;;;;;;20.23;14.60;;;19.20;99.90;;;;;;7295015;19;20230;-86
2023/06/09 02:43:41;;;;;;;19.70;14.50;;;19.30;99.90;;;;;;7300647;19;20187;-86
2023/06/09 02:46:09;;;;;;;22.20;14.63;;;19.20;99.90;;;;;;7307441;19;20242;-87
2023/06/09 02:48:35;;;;;;;21.33;14.83;;;19.20;99.90;;;;;;7288121;19;20197;-87
2023/06/09 02:51:00;;;;;;;22.17;14.47;;;19.20;99.90;;;;;;7284395;19;20259;-86
2023/06/09 02:53:28;;;;;;;21.37;15.17;;;19.10;99.90;;;;;;7285817;19;20257;-86
2023/06/09 02:55:54;;;;;;;21.33;14.93;;;19.10;99.90;;;;;;7286184;19;20185;-87
2023/06/09 02:58:24;;;;;;;18.97;14.43;;;19.00;99.90;;;;;;7286273;19;20215;-86
2023/06/09 03:00:51;;;;;;;23.40;14.73;;;19.00;99.90;;;;;;7286021;19;20195;-87
2023/06/09 03:03:17;;;;;;;21.53;15.10;;;19.00;99.90;;;;;;7285686;19;20222;-86
2023/06/09 03:05:44;;;;;;;21.43;15.47;;;19.00;99.90;;;;;;7284298;19;20186;-86
2023/06/09 03:08:11;;;;;;;21.30;15.37;;;18.90;99.90;;;;;;7306028;19;20193;-86
2023/06/09 03:10:38;;;;;;;20.87;15.03;;;18.80;99.90;;;;;;7285555;19;20198;-87
2023/06/09 03:13:05;;;;;;;21.20;15.27;;;18.70;99.90;;;;;;7286235;19;20191;-87
2023/06/09 03:15:34;;;;;;;21.30;14.30;;;18.60;99.90;;;;;;7285602;19;20187;-87
2023/06/09 03:18:00;;;;;;;22.80;15.33;;;18.50;99.90;;;;;;7285698;19;20200;-86
2023/06/09 03:20:26;;;;;;;22.27;15.13;;;18.40;99.90;;;;;;7284448;19;20182;-87
2023/06/09 03:22:54;;;;;;;19.93;14.87;;;18.40;99.90;;;;;;7283859;19;20192;-86
2023/06/09 03:25:20;;;;;;;22.50;15.73;;;18.30;99.90;;;;;;7285941;19;20212;-86
2023/06/09 03:27:47;;;;;;;22.87;15.23;;;18.40;99.90;;;;;;7284667;19;20189;-86
2023/06/09 03:30:14;;;;;;;21.37;15.67;;;18.40;99.90;;;;;;7283780;19;20546;-86
2023/06/09 03:32:42;;;;;;;19.57;15.47;;;18.40;99.90;;;;;;7284838;19;20616;-86
2023/06/09 03:35:10;;;;;;;21.03;15.57;;;18.40;99.90;;;;;;7307186;19;20184;-86
2023/06/09 03:37:36;;;;;;;20.93;15.40;;;18.50;99.90;;;;;;7284276;19;20189;-87
2023/06/09 03:40:04;;;;;;;21.87;15.30;;;18.50;99.90;;;;;;7285241;19;20286;-86
2023/06/09 03:42:30;;;;;;;21.93;15.77;;;18.60;99.90;;;;;;7282449;19;20192;-88
2023/06/09 03:44:58;;;;;;;22.73;16.17;;;18.60;99.90;;;;;;7284336;19;20590;-86
2023/06/09 03:47:26;;;;;;;24.03;15.40;;;18.60;99.90;;;;;;7283618;19;20185;-87
2023/06/09 03:49:51;;;;;;;22.17;14.50;;;18.60;99.90;;;;;;7282834;19;20214;-86
2023/06/09 03:52:19;;;;;;;23.17;15.00;;;18.70;99.90;;;;;;7280953;19;20555;-87
2023/06/09 03:54:45;;;;;;;20.17;14.43;;;18.60;99.90;;;;;;7282384;19;20188;-87
2023/06/09 03:57:11;;;;;;;21.07;14.93;;;18.60;99.90;;;;;;7305361;19;20182;-87
2023/06/09 03:59:37;;;;;;;20.13;15.57;;;18.50;99.90;;;;;;7284188;19;20188;-87
2023/06/09 04:02:03;;;;;;;22.63;15.00;;;18.50;99.90;;;;;;7283874;19;20693;-88
2023/06/09 04:04:29;;;;;;;22.80;15.57;;;18.60;99.90;;;;;;7288407;19;20191;-88
2023/06/09 04:06:56;;;;;;;21.33;14.77;;;18.60;99.90;;;;;;7289155;19;20194;-87
2023/06/09 04:09:22;;;;;;;23.73;14.80;;;18.60;99.90;;;;;;7288463;19;20187;-87
2023/06/09 04:11:48;;;;;;;22.70;14.47;;;18.40;99.90;;;;;;7290410;19;20184;-87
2023/06/09 04:14:14;;;;;;;22.20;15.50;;;18.20;99.90;;;;;;7289177;19;20645;-86
2023/06/09 04:16:39;;;;;;;21.47;14.77;;;18.10;99.90;;;;;;7308320;19;20196;-87
2023/06/09 04:19:08;;;;;;;23.67;15.23;;;18.10;99.90;;;;;;7290480;19;20182;-87
2023/06/09 04:21:36;;;;;;;22.07;15.07;;;18.20;99.90;;;;;;7289608;19;20199;-87
2023/06/09 04:24:02;;;;;;;23.43;15.07;;;18.40;99.90;;;;;;7291581;19;20195;-86
2023/06/09 04:26:29;;;;;;;20.77;14.90;;;18.50;99.90;;;;;;7291288;19;20253;-87
2023/06/09 04:28:55;;;;;;;22.73;14.57;;;18.70;99.90;;;;;;7288835;19;20191;-83
2023/06/09 04:31:24;;;;;;;20.53;14.50;;;19.20;99.90;;;;;;7288690;19;20176;-85
2023/06/09 04:33:51;;;;;;;19.27;13.90;;;20.00;99.90;;;;;;7287618;19;20195;-84
2023/06/09 04:36:20;;;;;;;18.63;13.90;;;21.00;99.90;;;;;;7287878;19;20280;-83
2023/06/09 04:38:47;;;;;;;19.10;14.20;;;22.10;99.90;;;;;;7286783;19;20185;-83
2023/06/09 04:41:13;;;;;;;19.20;13.37;;;22.90;99.90;;;;;;7298007;19;20277;-83
2023/06/09 04:43:41;;;;;;;19.80;13.07;;;23.70;99.90;;;;;;7310171;19;20189;-83
2023/06/09 04:46:09;;;;;;;15.37;10.97;;;24.40;99.90;;;;;;7288827;19;20180;-83
2023/06/09 04:48:35;;;;;;;18.27;12.37;;;25.20;99.90;;;;;;7287704;19;21814;-84
2023/06/09 04:51:01;;;;;;;16.57;11.67;;;25.70;99.90;;;;;;7287690;19;25369;-83
2023/06/09 04:53:30;;;;;;;15.45;11.20;;;26.30;99.90;;;;;;7288220;19;20218;-82
2023/06/09 04:55:58;;;;;;;18.10;11.40;;;26.90;99.90;;;;;;7288413;19;20211;-82
2023/06/09 04:58:28;;;;;;;14.43;11.52;;;27.30;99.90;;;;;;7288548;19;20185;-82
2023/06/09 05:00:56;;;;;;;15.30;11.38;;;27.80;99.90;;;;;;7288167;19;20185;-83
2023/06/09 05:03:23;;;;;;;18.88;12.02;;;27.90;99.90;;;;;;7283751;19;20217;-80
2023/06/09 05:05:50;;;;;;;14.90;11.32;;;27.60;99.90;;;;;;7288253;19;20192;-83
2023/06/09 05:08:16;;;;;;;15.93;11.65;;;28.00;99.90;;;;;;7288960;19;20218;-84
2023/06/09 05:10:43;;;;;;;16.13;11.13;;;28.00;99.90;;;;;;7291980;19;20185;-83
2023/06/09 05:13:10;;;;;;;18.58;10.63;;;28.30;99.90;;;;;;7310452;19;20252;-83
2023/06/09 05:15:36;;;;;;;14.00;11.13;;;28.40;99.90;;;;;;7286811;19;20216;-85
2023/06/09 05:18:03;;;;;;;14.70;11.30;;;28.10;99.90;;;;;;7288894;19;20182;-85
2023/06/09 05:20:29;;;;;;;14.57;10.98;;;28.30;99.90;;;;;;7287875;19;20185;-85
2023/06/09 05:22:54;;;;;;;18.17;11.43;;;28.60;99.90;;;;;;7288049;19;20666;-84
2023/06/09 05:25:20;;;;;;;14.90;11.05;;;29.30;99.90;;;;;;7287260;19;20213;-85
2023/06/09 05:27:47;;;;;;;17.45;11.95;;;29.90;99.90;;;;;;7288339;19;20217;-85
2023/06/09 05:30:15;;;;;;;16.48;11.32;;;30.50;99.90;;;;;;7287672;19;20260;-85
2023/06/09 05:32:40;;;;;;;15.45;10.90;;;30.50;99.90;;;;;;7308193;19;20189;-84
2023/06/09 05:35:07;;;;;;;17.08;12.00;;;31.00;99.90;;;;;;7288465;19;20193;-83
2023/06/09 05:37:34;;;;;;;15.43;11.50;;;30.60;99.90;;;;;;7287986;19;20588;-83
2023/06/09 05:40:00;;;;;;;15.85;11.55;;;30.00;99.90;;;;;;7287969;19;20265;-85
2023/06/09 05:42:26;;;;;;;18.77;12.00;;;29.90;99.90;;;;;;7282417;19;20189;-85
2023/06/09 05:44:52;;;;;;;16.67;12.20;;;29.50;99.90;;;;;;7294040;19;20193;-82
2023/06/09 05:47:17;;;;;;;18.38;12.27;;;29.20;99.90;;;;;;7286688;19;20209;-83
2023/06/09 05:49:43;;;;;;;14.68;11.05;;;29.40;99.90;;;;;;7291975;19;20193;-85
2023/06/09 05:52:09;;;;;;;17.15;12.40;;;29.40;99.90;;;;;;7311078;19;20567;-86
2023/06/09 05:54:36;;;;;;;17.92;11.80;;;29.30;99.90;;;;;;7286463;19;20198;-86
2023/06/09 05:57:03;;;;;;;15.05;11.07;;;29.20;99.90;;;;;;7292283;19;20231;-86
2023/06/09 05:59:32;;;;;;;14.80;11.13;;;29.60;99.90;;;;;;7293219;19;20193;-86
2023/06/09 06:01:58;;;;;;;16.02;11.70;;;29.00;99.90;;;;;;7294563;19;20197;-86
2023/06/09 06:04:24;;;;;;;17.38;11.30;;;28.60;99.90;;;;;;7295339;19;20228;-86
2023/06/09 06:06:50;;;;;;;22.27;12.73;;;28.30;99.90;;;;;;7286893;19;20267;-87
2023/06/09 06:09:16;;;;;;;14.68;11.00;;;28.10;99.90;;;;;;7285113;19;20644;-87
2023/06/09 06:11:41;;;;;;;16.50;11.02;;;28.80;99.90;;;;;;7310011;19;20206;-86
2023/06/09 06:14:07;;;;;;;15.65;11.10;;;28.80;99.90;;;;;;7289201;19;20189;-85
2023/06/09 06:16:33;;;;;;;16.42;11.02;;;29.40;99.90;;;;;;7285878;19;20193;-85
2023/06/09 06:18:59;;;;;;;16.35;11.13;;;29.70;99.90;;;;;;7285520;19;20581;-84
2023/06/09 06:21:25;;;;;;;14.55;10.57;;;29.70;99.90;;;;;;7285471;19;20252;-83
2023/06/09 06:23:51;;;;;;;17.50;10.70;;;29.60;99.90;;;;;;7285768;19;20722;-84
2023/06/09 06:26:16;;;;;;;14.70;10.30;;;29.20;99.90;;;;;;7284147;19;20188;-85
2023/06/09 06:28:42;;;;;;;15.50;9.95;;;29.80;99.90;;;;;;7299377;19;20259;-83
2023/06/09 06:31:08;;;;;;;14.73;9.45;;;30.00;99.90;;;;;;7303807;19;20584;-85
2023/06/09 06:33:34;;;;;;;13.93;9.88;;;29.90;99.90;;;;;;7284866;19;20201;-84
2023/06/09 06:36:00;;;;;;;14.52;9.30;;;29.80;99.90;;;;;;7285756;19;20185;-85
2023/06/09 06:38:26;;;;;;;14.65;9.32;;;30.30;99.90;;;;;;7284275;19;20189;-85
2023/06/09 06:40:52;;;;;;;12.55;8.88;;;30.30;99.90;;;;;;7286155;19;20197;-85
2023/06/09 06:43:17;;;;;;;13.63;9.15;;;30.50;99.90;;;;;;7284529;19;20213;-84
2023/06/09 06:45:56;;;;;;;13.50;8.50;;;30.40;99.90;;;;;;7286151;19;20196;-84
2023/06/09 06:48:22;;;;;;;14.88;8.80;;;30.30;99.90;;;;;;7284490;19;20222;-85
2023/06/09 06:50:48;;;;;;;13.65;8.35;;;30.30;99.90;;;;;;7283722;19;20185;-84
2023/06/09 06:53:13;;;;;;;13.95;8.93;;;30.00;99.90;;;;;;7285562;19;20615;-84
2023/06/09 06:55:39;;;;;;;14.27;8.13;;;30.30;99.90;;;;;;7305956;19;20200;-85
2023/06/09 06:58:05;;;;;;;10.30;7.70;;;30.40;99.90;;;;;;7284186;19;20559;-84
2023/06/09 07:00:31;;;;;;;12.60;8.80;;;30.20;99.90;;;;;;7285323;19;20193;-84
2023/06/09 07:02:56;;;;;;;11.85;8.38;;;30.40;99.90;;;;;;7284363;19;20192;-84
2023/06/09 07:05:22;;;;;;;14.20;8.65;;;30.60;99.90;;;;;;7283990;19;20654;-84
2023/06/09 07:07:48;;;;;;;14.30;8.18;;;31.00;99.90;;;;;;7284079;19;20641;-83
2023/06/09 07:10:14;;;;;;;12.77;8.20;;;31.60;99.90;;;;;;7283723;19;20193;-83
2023/06/09 07:12:41;;;;;;;14.15;8.65;;;32.60;99.80;;;;;;7306874;19;20189;-85
2023/06/09 07:15:07;;;;;;;12.07;7.72;;;33.70;99.50;;;;;;7284493;19;20192;-84
2023/06/09 07:17:33;;;;;;;9.52;6.97;;;33.80;98.30;;;;;;7281955;19;20215;-84
2023/06/09 07:19:59;;;;;;;11.50;7.15;;;34.00;95.30;;;;;;7284578;19;20648;-84
2023/06/09 07:22:25;;;;;;;12.10;7.28;;;35.10;94.60;;;;;;7283802;19;20723;-83
2023/06/09 07:24:51;;;;;;;10.65;6.93;;;36.40;92.70;;;;;;7283285;19;20313;-85
2023/06/09 07:27:17;;;;;;;12.15;7.13;;;37.30;90.30;;;;;;7304710;19;20185;-84
2023/06/09 07:29:43;;;;;;;9.65;7.28;;;37.10;86.20;;;;;;7394570;19;20150;-79
2023/06/09 07:32:10;;;;;;;9.50;7.30;;;37.50;83.70;;;;;;7317036;19;20188;-79
2023/06/09 07:34:37;;;;;;;9.73;6.70;;;37.90;81.10;;;;;;7393799;19;20541;-79
2023/06/09 07:37:04;;;;;;;11.38;6.80;;;38.30;79.70;;;;;;7397813;19;20831;-79
2023/06/09 07:39:30;;;;;;;10.60;6.43;;;37.90;76.90;;;;;;7308783;19;20192;-79
2023/06/09 07:41:58;;;;;;;11.43;6.78;;;37.00;76.70;;;;;;7288312;19;20273;-79
2023/06/09 07:44:24;;;;;;;11.70;7.10;;;37.30;75.90;;;;;;7289696;19;20345;-79
2023/06/09 07:46:50;;;;;;;9.93;6.40;;;38.50;75.60;;;;;;7290579;19;20287;-79
2023/06/09 07:49:16;;;;;;;12.15;7.40;;;37.40;72.40;;;;;;7289972;19;20215;-79
2023/06/09 07:51:43;;;;;;;10.15;6.85;;;36.60;72.60;;;;;;7311966;19;20227;-79
2023/06/09 07:54:09;;;;;;;9.20;6.28;;;36.30;74.00;;;;;;7290015;19;20184;-79
2023/06/09 07:56:36;;;;;;;10.70;6.57;;;36.20;73.70;;;;;;7289734;19;20527;-79
2023/06/09 07:59:02;;;;;;;8.50;6.43;;;36.10;73.20;;;;;;7290684;19;20192;-80
2023/06/09 08:01:29;;;;;;;10.27;6.30;;;36.20;71.80;;;;;;7290425;19;20204;-79
2023/06/09 08:03:56;;;;;;;10.57;6.30;;;36.50;70.70;;;;;;7290253;19;20904;-79
2023/06/09 08:06:21;;;;;;;9.75;6.72;;;36.30;71.40;;;;;;7401956;19;20153;-79
2023/06/09 08:08:47;;;;;;;9.60;6.38;;;36.10;71.40;;;;;;7404900;19;20141;-79
2023/06/09 08:11:13;;;;;;;10.52;6.35;;;36.40;71.80;;;;;;7332395;19;20631;-80
2023/06/09 08:13:39;;;;;;;9.13;6.22;;;37.10;70.00;;;;;;7289979;19;20188;-80
2023/06/09 08:16:05;;;;;;;9.18;6.20;;;38.10;67.50;;;;;;7288103;19;20249;-79
2023/06/09 08:18:30;;;;;;;9.23;5.95;;;37.50;69.00;;;;;;7290170;19;20661;-79
2023/06/09 08:20:56;;;;;;;9.90;5.85;;;37.70;67.00;;;;;;7310421;19;20184;-79
2023/06/09 08:23:22;;;;;;;11.93;6.32;;;36.80;66.90;;;;;;7286046;19;20197;-79
2023/06/09 08:25:48;;;;;;;9.82;6.22;;;36.60;67.70;;;;;;7309847;19;20681;-80
2023/06/09 08:28:14;;;;;;;9.15;6.00;;;35.90;68.10;;;;;;7350840;19;20203;-79
2023/06/09 08:30:40;;;;;;;10.02;6.15;;;36.30;68.50;;;;;;7287638;19;20245;-78
2023/06/09 08:33:06;;;;;;;9.02;6.20;;;36.00;68.20;;;;;;7289457;19;20730;-79
2023/06/09 08:35:32;;;;;;;10.23;6.00;;;35.80;68.00;;;;;;7283102;19;20192;-79
2023/06/09 08:37:59;;;;;;;10.98;6.57;;;35.50;68.30;;;;;;7287724;19;20675;-79
2023/06/09 08:40:25;;;;;;;11.35;6.03;;;35.30;68.50;;;;;;7284964;19;20675;-79
2023/06/09 08:42:55;;;;;;;9.73;5.90;;;35.20;68.20;;;;;;7287942;19;20188;-79
2023/06/09 08:45:22;;;;;;;8.73;5.43;;;35.30;68.70;;;;;;7287945;19;20653;-78
2023/06/09 08:47:49;;;;;;;9.13;5.45;;;35.60;68.70;;;;;;7295303;19;20185;-79
2023/06/09 08:50:18;;;;;;;10.73;5.47;;;35.10;67.80;;;;;;7311930;19;20185;-80
2023/06/09 08:52:45;;;;;;;8.98;5.28;;;35.40;68.40;;;;;;7280452;19;20193;-80
2023/06/09 08:55:13;;;;;;;9.63;5.50;;;36.00;66.90;;;;;;7290243;19;20663;-79
2023/06/09 08:57:40;;;;;;;7.70;5.68;;;36.20;65.50;;;;;;7312603;19;20208;-79
2023/06/09 09:00:09;;;;;;;9.15;5.72;;;36.00;65.30;;;;;;7284113;19;20213;-79
2023/06/09 09:02:35;;;;;;;9.02;5.82;;;36.50;65.10;;;;;;7311787;19;20189;-79
2023/06/09 09:05:01;;;;;;;10.50;5.97;;;36.90;64.50;;;;;;7290132;19;20260;-79
2023/06/09 09:07:28;;;;;;;8.80;5.60;;;37.00;63.30;;;;;;7285413;19;20193;-79
2023/06/09 09:09:54;;;;;;;11.45;5.72;;;37.10;63.60;;;;;;7289876;19;20201;-78
2023/06/09 09:12:20;;;;;;;9.65;5.57;;;37.80;61.90;;;;;;7311197;19;20211;-79
2023/06/09 09:14:47;;;;;;;6.65;5.13;;;37.20;62.50;;;;;;7325317;19;20672;-79
2023/06/09 09:17:14;;;;;;;8.30;5.63;;;37.30;63.00;;;;;;7288450;19;20202;-79
2023/06/09 09:19:45;;;;;;;8.65;5.90;;;36.80;63.00;;;;;;7286388;19;20279;-79
2023/06/09 09:22:11;;;;;;;10.07;5.72;;;35.90;64.40;;;;;;7292036;19;20200;-78
2023/06/09 09:24:41;;;;;;;9.23;5.53;;;35.70;64.00;;;;;;7288489;19;20194;-79
2023/06/09 09:27:18;;;;;;;9.27;5.57;;;36.00;64.80;;;;;;7333796;19;20196;-79
2023/06/09 09:29:44;;;;;;;10.82;5.25;;;37.20;66.20;;;;;;7294059;19;20188;-79
2023/06/09 09:32:10;;;;;;;9.48;5.32;;;37.90;62.50;;;;;;7287621;19;20185;-79
2023/06/09 09:34:39;;;;;;;8.02;5.32;;;38.10;60.90;;;;;;7294973;19;20352;-79
2023/06/09 09:37:10;;;;;;;10.93;4.78;;;38.20;59.50;;;;;;7290628;19;20689;-78
2023/06/09 09:39:50;;;;;;;8.55;4.85;;;38.40;59.50;;;;;;7267447;19;20218;-79
2023/06/09 09:42:16;;;;;;;7.47;4.80;;;37.60;59.10;;;;;;7286108;19;20205;-79
2023/06/09 09:44:45;;;;;;;8.55;4.95;;;37.50;59.50;;;;;;7303642;19;20579;-79
2023/06/09 09:47:13;;;;;;;8.32;5.13;;;37.70;59.20;;;;;;7287805;19;20201;-79
2023/06/09 09:49:50;;;;;;;8.35;5.40;;;37.10;58.90;;;;;;7288767;19;20538;-78
2023/06/09 09:52:32;;;;;;;8.07;5.15;;;36.00;60.00;;;;;;7301571;19;20200;-79
2023/06/09 09:55:04;;;;;;;7.30;5.20;;;35.70;61.30;;;;;;7183059;19;2005082;-79
2023/06/09 09:57:32;;;;;;;8.23;5.30;;;35.40;60.40;;;;;;7284584;19;20668;-79
2023/06/09 10:00:00;;;;;;;9.30;5.25;;;36.00;60.70;;;;;;7303499;19;20660;-79
2023/06/09 10:02:30;;;;;;;7.65;5.10;;;36.90;60.00;;;;;;7395912;19;20613;-79
2023/06/09 10:04:57;;;;;;;8.70;5.15;;;38.20;60.40;;;;;;7397037;19;20150;-80
2023/06/09 10:07:26;;;;;;;9.88;5.30;;;38.00;58.40;;;;;;7331214;19;20620;-79
2023/06/09 10:09:53;;;;;;;7.30;4.90;;;37.70;58.50;;;;;;7283251;19;20562;-79
2023/06/09 10:12:19;;;;;;;7.63;4.55;;;37.90;58.30;;;;;;7283324;19;20242;-79
2023/06/09 10:14:48;;;;;;;7.60;4.60;;;37.80;58.40;;;;;;7308670;19;20197;-80
2023/06/09 10:17:17;;;;;;;10.00;4.70;;;36.90;58.10;;;;;;7279783;19;20264;-79
2023/06/09 10:19:43;;;;;;;9.68;4.90;;;36.20;60.10;;;;;;7273101;19;20213;-80
2023/06/09 10:22:10;;;;;;;9.95;4.80;;;36.40;60.00;;;;;;7284919;19;20189;-81
2023/06/09 10:24:38;;;;;;;9.15;4.78;;;36.80;59.50;;;;;;7272373;19;20196;-80
2023/06/09 10:27:06;;;;;;;8.77;4.68;;;36.70;61.50;;;;;;7284650;19;20212;-80
2023/06/09 10:29:33;;;;;;;8.50;4.30;;;36.00;58.40;;;;;;7281892;19;20216;-80
2023/06/09 10:32:00;;;;;;;7.78;4.38;;;35.80;59.40;;;;;;7286601;19;20188;-80
2023/06/09 10:34:27;;;;;;;8.27;4.63;;;36.00;59.30;;;;;;7287710;19;20189;-79
2023/06/09 10:36:54;;;;;;;12.02;4.95;;;36.40;60.20;;;;;;7285135;19;20637;-80
2023/06/09 10:39:23;;;;;;;7.82;4.57;;;35.90;58.60;;;;;;7283203;19;20184;-80
2023/06/09 10:42:14;;;;;;;9.73;4.30;;;35.80;58.90;;;;;;7282237;19;20744;-80
2023/06/09 10:44:55;;;;;;;7.03;4.50;;;36.60;59.50;;;;;;7283909;19;20256;-80
2023/06/09 10:47:42;;;;;;;9.15;4.35;;;37.30;58.80;;;;;;7262538;19;20218;-80
2023/06/09 10:50:23;;;;;;;10.65;5.05;;;37.10;59.40;;;;;;7283084;19;20256;-79
2023/06/09 10:52:53;;;;;;;8.18;5.05;;;36.60;57.60;;;;;;7261828;19;20675;-80
2023/06/09 10:55:21;;;;;;;6.60;4.90;;;36.40;58.30;;;;;;7290580;19;20648;-80
2023/06/09 10:57:47;;;;;;;7.55;4.85;;;36.50;58.30;;;;;;7302404;19;20188;-80
2023/06/09 11:00:14;;;;;;;7.63;4.60;;;36.50;59.30;;;;;;7300241;19;20185;-80
2023/06/09 11:02:42;;;;;;;9.25;4.78;;;36.60;59.30;;;;;;7268396;19;20185;-80
2023/06/09 11:05:08;;;;;;;9.55;4.82;;;36.20;59.60;;;;;;7285863;19;20186;-80
2023/06/09 11:07:46;;;;;;;7.93;4.63;;;35.80;59.30;;;;;;7284603;19;20205;-79
2023/06/09 11:10:12;;;;;;;8.15;5.00;;;35.60;59.20;;;;;;7283666;19;20180;-80
2023/06/09 11:12:46;;;;;;;8.43;4.88;;;35.30;58.80;;;;;;7282600;19;20241;-80
2023/06/09 11:15:15;;;;;;;6.60;4.40;;;35.60;59.90;;;;;;7286709;19;20189;-80
2023/06/09 11:17:43;;;;;;;7.82;4.75;;;36.50;60.50;;;;;;7270332;19;20191;-80
2023/06/09 11:20:09;;;;;;;9.50;4.90;;;36.20;58.40;;;;;;7285357;19;20215;-80
2023/06/09 11:22:47;;;;;;;6.90;4.60;;;35.80;58.00;;;;;;7284714;19;20653;-80
2023/06/09 11:25:20;;;;;;;6.95;4.60;;;36.10;58.60;;;;;;7285286;19;20734;-81
2023/06/09 11:27:49;;;;;;;7.70;4.68;;;37.00;58.40;;;;;;7284963;19;20185;-80
2023/06/09 11:30:19;;;;;;;6.90;4.70;;;36.90;57.30;;;;;;7283890;19;20268;-80
2023/06/09 11:32:48;;;;;;;7.80;4.50;;;37.30;58.40;;;;;;7284197;19;20224;-80
2023/06/09 11:35:29;;;;;;;7.82;4.68;;;36.70;57.00;;;;;;7282501;19;20180;-80
2023/06/09 11:37:56;;;;;;;7.97;4.85;;;36.40;57.00;;;;;;7182278;19;2004622;-79
2023/06/09 11:40:22;;;;;;;8.15;4.70;;;36.30;58.20;;;;;;7268590;19;20177;-79
2023/06/09 11:42:49;;;;;;;7.72;4.88;;;35.00;58.70;;;;;;7286289;19;20177;-79
2023/06/09 11:45:15;;;;;;;8.23;4.45;;;34.90;59.90;;;;;;7305591;19;20180;-80
2023/06/09 11:47:42;;;;;;;7.07;4.45;;;34.70;60.00;;;;;;7284460;19;20188;-80
2023/06/09 11:50:15;;;;;;;6.53;4.53;;;35.10;59.80;;;;;;7284461;19;20186;-79
2023/06/09 11:52:42;;;;;;;7.35;4.47;;;35.00;59.80;;;;;;7282506;19;20189;-80
2023/06/09 11:55:10;;;;;;;8.40;4.50;;;35.20;59.40;;;;;;7267000;19;20210;-80
2023/06/09 11:57:37;;;;;;;7.05;4.80;;;35.10;60.20;;;;;;7284128;19;20193;-79
2023/06/09 12:00:12;;;;;;;7.97;4.85;;;34.90;59.50;;;;;;7283663;19;20644;-79
2023/06/09 12:02:41;;;;;;;7.85;4.85;;;34.40;59.90;;;;;;7281875;19;20296;-80
2023/06/09 12:05:09;;;;;;;10.27;5.22;;;34.50;61.30;;;;;;7276316;19;20269;-80
2023/06/09 12:07:35;;;;;;;9.85;4.95;;;34.20;60.00;;;;;;7271164;19;20192;-79
2023/06/09 12:10:00;;;;;;;7.50;4.40;;;33.60;61.40;;;;;;7284818;19;20189;-79
2023/06/09 12:12:26;;;;;;;8.82;4.78;;;33.10;63.40;;;;;;7283818;19;20211;-79
2023/06/09 12:14:52;;;;;;;13.13;4.93;;;32.50;64.40;;;;;;7282326;19;20196;-81
2023/06/09 12:17:18;;;;;;;8.48;4.88;;;32.30;63.70;;;;;;7289409;19;20681;-80
2023/06/09 12:19:47;;;;;;;8.82;5.07;;;32.10;63.50;;;;;;7305413;19;20738;-80
2023/06/09 12:22:13;;;;;;;7.20;5.05;;;32.20;65.00;;;;;;7290239;19;20188;-79
2023/06/09 12:24:38;;;;;;;8.30;5.03;;;32.00;67.10;;;;;;7287779;19;20260;-79
2023/06/09 12:27:12;;;;;;;10.10;5.05;;;32.10;66.00;;;;;;7295654;19;20221;-78
2023/06/09 12:29:38;;;;;;;10.38;5.18;;;32.10;66.50;;;;;;7299236;19;20215;-78
2023/06/09 12:32:06;;;;;;;9.55;4.97;;;31.90;65.40;;;;;;7288059;19;20307;-79
2023/06/09 12:34:32;;;;;;;7.25;4.78;;;31.50;65.40;;;;;;7289513;19;20780;-79
2023/06/09 12:36:58;;;;;;;8.95;4.47;;;31.20;66.80;;;;;;7285192;19;20231;-79
2023/06/09 12:39:28;;;;;;;9.75;4.55;;;31.10;65.80;;;;;;7289662;19;20252;-79